Time;durP1;ratioP1;P1;durP2;ratioP2;P2;SDS_P1;SDS_P2;PMS_P1;PMS_P2;Temp;Humidity;BMP_temperature;BMP_pressure;BME280_temperature;BME280_humidity;BME280_pressure;Samples;Min_cycle;Max_cycle;Signal;HPM_P1;HPM_P2
2023/04/01 00:10:54;;;;;;;55.92;51.70;;;9.90;99.90;;;;;;5307550;27;20475;-75
2023/04/01 00:13:26;;;;;;;49.00;45.53;;;10.50;99.90;;;;;;5287863;28;20028;-69
2023/04/01 00:15:57;;;;;;;48.15;44.75;;;10.40;99.90;;;;;;5283208;28;20569;-72
2023/04/01 00:18:27;;;;;;;53.15;49.50;;;10.40;99.90;;;;;;5284211;28;20131;-76
2023/04/01 00:20:58;;;;;;;48.22;44.83;;;10.40;99.90;;;;;;5287761;28;20028;-69
2023/04/01 00:23:29;;;;;;;50.38;46.53;;;10.10;99.90;;;;;;5284175;28;20071;-76
2023/04/01 00:26:02;;;;;;;54.03;50.05;;;10.30;99.90;;;;;;5285541;28;20065;-71
2023/04/01 00:28:35;;;;;;;47.03;43.42;;;10.50;99.90;;;;;;5284743;28;20482;-75
2023/04/01 00:31:08;;;;;;;47.70;44.13;;;10.30;99.90;;;;;;5285360;28;20383;-75
2023/04/01 00:33:40;;;;;;;48.28;44.28;;;10.40;99.90;;;;;;5285862;28;20455;-69
2023/04/01 00:36:17;;;;;;;50.58;46.85;;;10.50;99.90;;;;;;5285893;28;20032;-75
2023/04/01 00:52:38;;;;;;;47.67;44.15;;;10.30;99.90;;;;;;5308280;27;20419;-67
2023/04/01 00:55:14;;;;;;;47.03;43.42;;;9.50;99.90;;;;;;5291334;28;20031;-68
2023/04/01 00:57:48;;;;;;;50.92;47.13;;;9.70;99.90;;;;;;5286209;28;20044;-68
2023/04/01 01:00:19;;;;;;;55.05;50.90;;;9.30;99.90;;;;;;5286130;28;20417;-69
2023/04/01 01:02:51;;;;;;;61.60;57.13;;;9.50;99.90;;;;;;5270696;28;20036;-76
2023/04/01 01:05:49;;;;;;;60.70;56.30;;;9.50;99.90;;;;;;5286144;28;20434;-66
2023/04/01 01:08:38;;;;;;;60.85;56.47;;;9.90;99.90;;;;;;5285901;28;20024;-67
2023/04/01 01:11:12;;;;;;;60.60;56.17;;;10.00;99.90;;;;;;5305186;28;20019;-67
2023/04/01 01:14:03;;;;;;;56.80;52.78;;;9.80;99.90;;;;;;5307153;28;20082;-67
2023/04/01 01:16:43;;;;;;;57.97;54.05;;;10.00;99.90;;;;;;5307028;28;20443;-67
2023/04/01 01:19:37;;;;;;;62.40;57.85;;;10.10;99.90;;;;;;5304712;28;20382;-67
2023/04/01 01:22:24;;;;;;;61.95;57.65;;;9.90;99.90;;;;;;5285592;28;20043;-68
2023/04/01 01:25:03;;;;;;;58.60;54.28;;;10.40;99.90;;;;;;5285918;28;20073;-66
2023/04/01 01:27:39;;;;;;;62.10;57.67;;;10.10;99.90;;;;;;5301374;28;20031;-67
2023/04/01 01:30:49;;;;;;;61.72;57.22;;;10.00;99.90;;;;;;5305840;28;20053;-68
2023/04/01 01:33:32;;;;;;;87.93;81.87;;;10.40;99.90;;;;;;5266661;28;20102;-67
2023/04/01 01:36:06;;;;;;;60.20;55.65;;;10.40;99.90;;;;;;5285245;28;20028;-67
2023/04/01 01:38:38;;;;;;;59.25;54.83;;;10.60;99.90;;;;;;5285314;28;20387;-68
2023/04/01 01:41:11;;;;;;;53.63;49.30;;;10.50;99.90;;;;;;5284876;28;20108;-67
2023/04/01 01:43:46;;;;;;;60.47;55.28;;;10.30;99.90;;;;;;5288849;28;20032;-67
2023/04/01 01:46:22;;;;;;;59.03;54.15;;;10.40;99.90;;;;;;5304739;28;20720;-76
2023/04/01 01:48:54;;;;;;;54.03;49.75;;;10.40;99.90;;;;;;5288118;28;20073;-66
2023/04/01 01:51:27;;;;;;;60.80;56.00;;;10.20;99.90;;;;;;5303358;28;20066;-67
2023/04/01 01:53:58;;;;;;;59.45;54.30;;;10.40;99.90;;;;;;5291752;28;20028;-68
2023/04/01 01:56:30;;;;;;;66.00;60.58;;;10.50;99.90;;;;;;5288821;28;20085;-67
2023/04/01 01:59:08;;;;;;;94.90;88.22;;;10.40;99.90;;;;;;5292248;28;20344;-71
2023/04/01 02:01:44;;;;;;;66.95;61.75;;;10.40;99.90;;;;;;5292111;28;20043;-75
2023/04/01 02:04:17;;;;;;;64.28;59.10;;;10.40;99.90;;;;;;5287370;28;20518;-67
2023/04/01 02:07:07;;;;;;;62.30;56.92;;;10.10;99.90;;;;;;5289555;28;20876;-67
2023/04/01 02:09:38;;;;;;;68.43;62.83;;;10.60;99.90;;;;;;5292072;28;20059;-67
2023/04/01 02:12:13;;;;;;;65.53;60.15;;;10.50;99.90;;;;;;5291955;28;20034;-67
2023/04/01 02:15:06;;;;;;;67.28;61.95;;;10.30;99.90;;;;;;5271402;28;20019;-67
2023/04/01 02:17:43;;;;;;;61.33;56.40;;;10.30;99.90;;;;;;5239772;28;20040;-67
2023/04/01 02:20:23;;;;;;;65.80;60.92;;;10.40;99.90;;;;;;5270852;28;20114;-67
2023/04/01 02:22:57;;;;;;;63.55;58.58;;;10.20;99.90;;;;;;5270602;28;20024;-67
2023/04/01 02:25:33;;;;;;;76.78;70.90;;;10.20;99.90;;;;;;5270231;28;20031;-72
2023/04/01 02:28:07;;;;;;;64.47;59.33;;;10.40;99.90;;;;;;5270383;28;20103;-73
2023/04/01 02:30:40;;;;;;;58.20;53.47;;;10.20;99.90;;;;;;5270510;28;20039;-71
2023/04/01 02:33:11;;;;;;;61.10;56.28;;;10.40;99.90;;;;;;5279257;28;20023;-72
2023/04/01 02:35:43;;;;;;;61.15;56.25;;;10.40;99.90;;;;;;5281501;28;20103;-73
2023/04/01 02:38:15;;;;;;;67.63;62.25;;;10.20;99.90;;;;;;5284033;28;20024;-72
2023/04/01 02:40:56;;;;;;;62.00;56.90;;;10.30;99.90;;;;;;5256597;28;20066;-72
2023/04/01 02:43:27;;;;;;;54.28;49.97;;;10.20;99.90;;;;;;5270090;28;20480;-70
2023/04/01 02:45:58;;;;;;;58.97;54.40;;;10.20;99.90;;;;;;5270012;28;20023;-72
2023/04/01 02:48:30;;;;;;;57.90;53.30;;;10.30;99.90;;;;;;5270290;28;20024;-67
2023/04/01 02:51:01;;;;;;;52.72;48.45;;;10.20;99.90;;;;;;5269603;28;20044;-73
2023/04/01 02:53:31;;;;;;;55.42;51.35;;;10.20;99.90;;;;;;5270058;28;20445;-69
2023/04/01 02:56:02;;;;;;;56.22;51.78;;;10.40;99.90;;;;;;5269779;28;20024;-72
2023/04/01 02:58:33;;;;;;;54.78;50.70;;;10.40;99.90;;;;;;5272804;28;20034;-72
2023/04/01 03:01:04;;;;;;;58.28;54.08;;;10.50;99.90;;;;;;5276286;28;20043;-67
2023/04/01 03:03:35;;;;;;;61.33;56.95;;;10.40;99.90;;;;;;5269109;28;20016;-67
2023/04/01 03:06:12;;;;;;;60.08;55.55;;;10.30;99.90;;;;;;5272916;28;20055;-67
2023/04/01 03:08:43;;;;;;;53.00;49.05;;;10.40;99.90;;;;;;5269368;28;20114;-67
2023/04/01 03:11:14;;;;;;;58.13;53.90;;;10.40;99.90;;;;;;5274778;28;20387;-67
2023/04/01 03:13:45;;;;;;;58.92;54.30;;;10.30;99.90;;;;;;5290630;28;20023;-67
2023/04/01 03:16:16;;;;;;;54.30;49.97;;;10.40;99.90;;;;;;5290479;28;20024;-66
2023/04/01 03:18:49;;;;;;;53.28;49.25;;;10.20;99.90;;;;;;5290681;28;20020;-67
2023/04/01 03:21:22;;;;;;;57.25;53.08;;;10.20;99.90;;;;;;5265613;28;20053;-67
2023/04/01 03:23:53;;;;;;;59.88;55.67;;;10.20;99.90;;;;;;5269582;28;20031;-68
2023/04/01 03:26:26;;;;;;;61.05;56.38;;;10.30;99.90;;;;;;5281803;28;20023;-67
2023/04/01 03:28:57;;;;;;;57.20;53.00;;;10.10;99.90;;;;;;5289637;28;20047;-67
2023/04/01 03:31:28;;;;;;;54.45;50.63;;;10.30;99.90;;;;;;5281975;28;20058;-67
2023/04/01 03:33:59;;;;;;;57.25;52.85;;;10.10;99.90;;;;;;5268684;28;20020;-68
2023/04/01 03:36:30;;;;;;;60.70;56.50;;;10.20;99.90;;;;;;5288949;28;20443;-67
2023/04/01 03:39:00;;;;;;;62.83;58.35;;;10.30;99.90;;;;;;5289939;28;20110;-67
2023/04/01 03:41:32;;;;;;;63.15;58.67;;;10.20;99.90;;;;;;5289821;28;20157;-68
2023/04/01 03:44:03;;;;;;;62.17;57.85;;;10.30;99.90;;;;;;5277748;28;20469;-67
2023/04/01 03:46:34;;;;;;;57.50;53.33;;;10.10;99.90;;;;;;5268773;28;20067;-67
2023/04/01 03:49:11;;;;;;;61.15;56.67;;;10.10;99.90;;;;;;5268765;28;20027;-67
2023/04/01 03:51:43;;;;;;;62.83;58.28;;;10.20;99.90;;;;;;5268319;28;20052;-66
2023/04/01 03:54:14;;;;;;;62.10;57.30;;;10.40;99.90;;;;;;5268622;28;20024;-67
2023/04/01 03:56:45;;;;;;;62.28;57.38;;;10.20;99.90;;;;;;5250689;28;20058;-66
2023/04/01 03:59:16;;;;;;;60.25;55.40;;;10.10;99.90;;;;;;5271455;28;20020;-66
2023/04/01 04:01:47;;;;;;;63.08;58.55;;;10.20;99.90;;;;;;5272586;28;20051;-67
2023/04/01 04:04:18;;;;;;;123.38;115.00;;;10.20;99.90;;;;;;5268540;28;20032;-68
2023/04/01 04:06:50;;;;;;;53.63;49.70;;;10.30;99.90;;;;;;5268460;28;20031;-75
2023/04/01 04:09:21;;;;;;;52.55;48.72;;;10.30;99.90;;;;;;5278249;28;20106;-67
2023/04/01 04:11:52;;;;;;;51.03;47.25;;;10.30;99.90;;;;;;5268319;28;20563;-67
2023/04/01 04:14:23;;;;;;;49.33;45.58;;;10.30;99.90;;;;;;5267968;28;20031;-66
2023/04/01 04:16:54;;;;;;;52.22;48.40;;;10.30;99.90;;;;;;5268323;28;20032;-67
2023/04/01 04:19:25;;;;;;;53.88;49.95;;;10.20;99.90;;;;;;5270111;28;20028;-66
2023/04/01 04:21:56;;;;;;;51.72;48.17;;;10.30;99.90;;;;;;5269419;28;20494;-67
2023/04/01 04:24:27;;;;;;;54.33;49.88;;;10.40;99.90;;;;;;5268073;28;20024;-66
2023/04/01 04:26:58;;;;;;;55.92;51.78;;;10.30;99.90;;;;;;5268328;28;20116;-67
2023/04/01 04:29:29;;;;;;;49.78;46.35;;;10.40;99.90;;;;;;5268059;28;20051;-67
2023/04/01 04:32:00;;;;;;;51.92;48.00;;;10.40;99.90;;;;;;5268073;28;20487;-66
2023/04/01 04:34:31;;;;;;;49.22;45.88;;;10.40;99.90;;;;;;5268146;28;20055;-67
2023/04/01 04:37:02;;;;;;;52.35;48.78;;;10.60;99.90;;;;;;5268373;28;20695;-66
2023/04/01 04:39:33;;;;;;;50.53;47.00;;;10.70;99.90;;;;;;5268205;28;20034;-66
2023/04/01 04:42:05;;;;;;;57.30;53.03;;;10.60;99.90;;;;;;5267975;28;20043;-69
2023/04/01 04:44:36;;;;;;;48.05;44.55;;;11.00;99.90;;;;;;5268054;28;20066;-66
2023/04/01 04:47:06;;;;;;;51.67;47.80;;;11.00;99.90;;;;;;5268173;28;20055;-67
2023/04/01 04:49:37;;;;;;;50.70;46.80;;;11.10;99.90;;;;;;5268094;28;20028;-67
2023/04/01 04:52:08;;;;;;;52.95;48.70;;;11.30;99.90;;;;;;5267755;28;20048;-67
2023/04/01 04:54:39;;;;;;;66.95;61.80;;;11.40;99.90;;;;;;5268087;28;20028;-67
2023/04/01 04:57:10;;;;;;;54.10;50.53;;;11.30;99.90;;;;;;5267995;28;20081;-67
2023/04/01 04:59:41;;;;;;;62.60;58.70;;;11.50;99.90;;;;;;5276099;28;20036;-67
2023/04/01 05:02:12;;;;;;;62.53;57.80;;;11.60;99.90;;;;;;5269998;28;20086;-67
2023/04/01 05:04:43;;;;;;;62.95;58.92;;;11.70;99.90;;;;;;5267723;28;20020;-67
2023/04/01 05:07:14;;;;;;;67.50;62.92;;;11.80;99.90;;;;;;5267872;28;20031;-66
2023/04/01 05:09:45;;;;;;;66.85;62.45;;;12.00;99.90;;;;;;5267820;28;20024;-67
2023/04/01 05:12:16;;;;;;;68.15;63.80;;;12.10;99.90;;;;;;5267614;28;20028;-76
2023/04/01 05:14:47;;;;;;;71.22;66.57;;;12.20;99.90;;;;;;5270956;28;20047;-68
2023/04/01 05:17:18;;;;;;;75.93;71.10;;;12.40;99.90;;;;;;5267187;28;20032;-69
2023/04/01 05:19:49;;;;;;;77.95;72.97;;;12.60;99.90;;;;;;5267442;28;20078;-67
2023/04/01 05:22:20;;;;;;;74.45;69.43;;;12.70;99.90;;;;;;5283584;28;20035;-67
2023/04/01 05:24:51;;;;;;;76.78;71.85;;;12.70;99.90;;;;;;5288684;28;20355;-67
2023/04/01 05:27:21;;;;;;;72.85;67.82;;;12.80;99.90;;;;;;5290081;28;20413;-67
2023/04/01 05:29:52;;;;;;;61.25;57.13;;;12.80;99.90;;;;;;5292624;28;20027;-67
2023/04/01 05:32:23;;;;;;;55.47;51.72;;;12.90;99.90;;;;;;5289104;28;20035;-72
2023/04/01 05:34:54;;;;;;;58.03;54.33;;;13.00;99.90;;;;;;5278216;28;20028;-73
2023/04/01 05:37:25;;;;;;;61.15;57.05;;;13.00;99.90;;;;;;5280630;28;20043;-67
2023/04/01 05:39:58;;;;;;;61.58;57.55;;;13.10;99.90;;;;;;5279393;28;20375;-67
2023/04/01 05:42:29;;;;;;;56.78;52.75;;;13.10;99.90;;;;;;5746036;22;20052;-74
2023/04/01 05:45:00;;;;;;;67.13;62.80;;;13.10;99.90;;;;;;5245812;28;20023;-67
2023/04/01 05:47:31;;;;;;;61.10;57.15;;;13.20;99.90;;;;;;5245032;28;20467;-68
2023/04/01 05:50:01;;;;;;;63.15;58.70;;;13.30;99.90;;;;;;5248940;28;20456;-76
2023/04/01 05:52:32;;;;;;;63.47;59.40;;;13.30;99.90;;;;;;5247224;28;20487;-76
2023/04/01 05:55:04;;;;;;;55.50;51.75;;;13.40;99.90;;;;;;5233078;28;20508;-70
2023/04/01 05:57:35;;;;;;;51.75;48.22;;;13.70;99.90;;;;;;5247599;28;20017;-76
2023/04/01 06:00:06;;;;;;;72.32;67.35;;;13.90;99.90;;;;;;5241249;28;20082;-69
2023/04/01 06:02:38;;;;;;;49.40;46.03;;;14.00;99.90;;;;;;5245681;28;20039;-67
2023/04/01 06:05:22;;;;;;;49.67;45.90;;;14.10;99.90;;;;;;5243008;28;20075;-71
2023/04/01 06:08:00;;;;;;;48.58;45.28;;;14.30;99.90;;;;;;5243446;28;20029;-70
2023/04/01 06:10:54;;;;;;;47.20;43.53;;;14.50;99.90;;;;;;5249559;28;20534;-66
2023/04/01 06:13:25;;;;;;;43.78;40.80;;;14.70;99.90;;;;;;5228666;28;20058;-68
2023/04/01 06:16:17;;;;;;;45.22;41.83;;;14.80;99.90;;;;;;5228050;28;20017;-74
2023/04/01 06:19:13;;;;;;;46.03;42.80;;;14.70;99.90;;;;;;5223562;28;20460;-68
2023/04/01 06:21:56;;;;;;;52.35;48.83;;;14.80;99.90;;;;;;5227395;28;20400;-72
2023/04/01 06:25:05;;;;;;;43.30;40.22;;;15.00;99.90;;;;;;5228387;28;20021;-75
2023/04/01 06:28:05;;;;;;;41.08;38.38;;;15.10;99.90;;;;;;5226038;28;20060;-75
2023/04/01 06:30:47;;;;;;;82.10;76.15;;;15.00;99.90;;;;;;5222556;28;20039;-74
2023/04/01 06:33:45;;;;;;;51.95;48.60;;;14.90;99.90;;;;;;5226295;28;20118;-69
2023/04/01 06:36:19;;;;;;;59.85;55.47;;;15.10;99.90;;;;;;5215849;28;20033;-67
2023/04/01 06:39:29;;;;;;;53.67;50.10;;;15.20;99.90;;;;;;5216873;28;20068;-76
2023/04/01 06:42:03;;;;;;;46.27;43.13;;;15.20;99.90;;;;;;5224615;28;20076;-73
2023/04/01 06:44:39;;;;;;;44.58;41.03;;;15.30;99.90;;;;;;5225048;28;20283;-70
2023/04/01 06:47:20;;;;;;;42.03;38.92;;;15.40;99.90;;;;;;5227592;28;20067;-67
2023/04/01 06:50:00;;;;;;;42.65;39.50;;;15.50;99.90;;;;;;5225832;28;20118;-75
2023/04/01 06:53:09;;;;;;;40.97;38.17;;;15.60;99.90;;;;;;5226822;28;20017;-75
2023/04/01 06:55:48;;;;;;;43.05;40.08;;;15.80;99.90;;;;;;5209951;28;20037;-67
2023/04/01 06:58:51;;;;;;;47.90;44.45;;;15.90;99.90;;;;;;5226828;28;20029;-75
2023/04/01 07:01:35;;;;;;;61.35;57.13;;;15.90;99.90;;;;;;5204745;28;20041;-76
2023/04/01 07:04:19;;;;;;;42.22;39.38;;;15.70;99.90;;;;;;5224774;28;20032;-66
2023/04/01 07:07:00;;;;;;;211.07;196.65;;;15.70;99.90;;;;;;5228259;28;20047;-66
2023/04/01 07:09:35;;;;;;;38.75;35.90;;;15.60;99.90;;;;;;5227501;28;20047;-75
2023/04/01 07:12:34;;;;;;;40.35;37.55;;;15.80;99.90;;;;;;5225916;28;20037;-75
2023/04/01 07:15:36;;;;;;;108.97;101.77;;;15.80;99.90;;;;;;5227071;28;20021;-66
2023/04/01 07:18:28;;;;;;;39.97;37.13;;;15.80;99.90;;;;;;5227985;28;20040;-67
2023/04/01 07:20:59;;;;;;;33.72;31.30;;;15.90;99.90;;;;;;5209343;28;20060;-66
2023/04/01 07:23:40;;;;;;;40.08;37.13;;;15.90;99.90;;;;;;5207141;28;20537;-74
2023/04/01 07:26:23;;;;;;;107.00;100.47;;;15.90;99.90;;;;;;5207086;28;20400;-76
2023/04/01 07:28:54;;;;;;;41.03;38.03;;;15.70;99.90;;;;;;5206857;28;20030;-72
2023/04/01 07:31:30;;;;;;;41.05;37.90;;;15.80;99.90;;;;;;5223391;28;20093;-74
2023/04/01 07:34:08;;;;;;;42.13;38.53;;;15.70;99.90;;;;;;5227347;28;20017;-70
2023/04/01 07:36:50;;;;;;;49.83;46.58;;;15.70;99.90;;;;;;5227461;28;20037;-66
2023/04/01 07:39:45;;;;;;;42.67;39.60;;;15.90;99.90;;;;;;5227390;28;20044;-66
2023/04/01 07:42:44;;;;;;;44.97;41.60;;;16.10;99.90;;;;;;5226153;28;20053;-67
2023/04/01 07:45:33;;;;;;;86.35;81.05;;;16.00;99.90;;;;;;5226807;28;20021;-67
2023/04/01 07:48:31;;;;;;;34.03;31.25;;;16.00;99.90;;;;;;5227067;28;20040;-66
2023/04/01 07:51:12;;;;;;;66.15;61.97;;;16.40;99.90;;;;;;5226527;28;20530;-68
2023/04/01 07:54:04;;;;;;;33.65;31.40;;;16.60;99.90;;;;;;5226997;28;20334;-75
2023/04/01 07:56:55;;;;;;;55.50;51.50;;;16.70;99.90;;;;;;5226936;28;20025;-74
2023/04/01 07:59:54;;;;;;;35.92;33.05;;;17.00;99.90;;;;;;5196349;28;20416;-66
2023/04/01 08:02:54;;;;;;;32.65;30.33;;;16.90;99.90;;;;;;5206393;28;20040;-70
2023/04/01 08:05:27;;;;;;;;;;;16.70;99.90;;;;;;5187197;28;20038;-74
2023/04/01 08:08:16;;;;;;;30.70;28.35;;;16.70;99.90;;;;;;5208062;28;19909;-68
2023/04/01 08:11:12;;;;;;;33.10;30.37;;;16.50;99.90;;;;;;5218093;28;20044;-72
2023/04/01 08:14:04;;;;;;;34.40;31.77;;;16.60;99.90;;;;;;5226798;28;20392;-66
2023/04/01 08:16:45;;;;;;;43.28;40.10;;;17.00;99.90;;;;;;5225765;28;20124;-66
2023/04/01 08:19:39;;;;;;;36.17;33.70;;;16.80;99.90;;;;;;5224536;28;20036;-70
2023/04/01 08:22:19;;;;;;;34.53;31.95;;;17.50;99.90;;;;;;5225001;28;20099;-67
2023/04/01 08:24:51;;;;;;;;;;;17.40;99.90;;;;;;5225263;28;20481;-66
2023/04/01 08:27:46;;;;;;;66.18;59.45;;;17.20;99.90;;;;;;5225971;28;19915;-75
2023/04/01 08:30:21;;;;;;;35.72;32.75;;;17.50;99.90;;;;;;5207169;28;20620;-75
2023/04/01 08:32:58;;;;;;;37.67;34.75;;;17.30;99.90;;;;;;5223280;28;20033;-75
2023/04/01 08:35:36;;;;;;;37.15;34.00;;;16.80;99.90;;;;;;5226464;28;20033;-73
2023/04/01 08:38:26;;;;;;;40.10;37.00;;;16.80;99.90;;;;;;5207346;28;20029;-67
2023/04/01 08:41:09;;;;;;;35.15;32.33;;;16.60;99.90;;;;;;5223802;28;20056;-67
2023/04/01 08:43:52;;;;;;;34.72;32.00;;;16.70;99.90;;;;;;5220957;28;20071;-74
2023/04/01 08:46:41;;;;;;;37.83;34.80;;;16.90;99.90;;;;;;5225975;28;20033;-70
2023/04/01 08:49:30;;;;;;;35.70;32.85;;;16.90;99.90;;;;;;5225050;28;20033;-70
2023/04/01 08:52:24;;;;;;;32.33;30.02;;;17.30;99.90;;;;;;5216426;28;20494;-67
2023/04/01 08:55:13;;;;;;;41.15;37.80;;;17.40;99.90;;;;;;5208543;28;20034;-67
2023/04/01 08:58:12;;;;;;;137.55;128.38;;;17.30;99.90;;;;;;5210482;28;20048;-66
2023/04/01 09:01:11;;;;;;;39.47;36.58;;;17.10;99.90;;;;;;5224505;28;20133;-72
2023/04/01 09:04:07;;;;;;;35.37;32.70;;;17.70;99.90;;;;;;5228174;28;20561;-67
2023/04/01 09:06:50;;;;;;;34.47;32.13;;;17.50;99.90;;;;;;5230202;28;20021;-67
2023/04/01 09:09:30;;;;;;;36.30;33.83;;;17.60;99.90;;;;;;5230198;28;20036;-73
2023/04/01 09:12:21;;;;;;;60.33;56.00;;;17.30;99.90;;;;;;5228413;28;20465;-69
2023/04/01 09:15:15;;;;;;;38.88;35.97;;;17.10;99.90;;;;;;5230133;28;20070;-66
2023/04/01 09:18:05;;;;;;;39.35;36.45;;;17.20;99.90;;;;;;5229922;28;20027;-66
2023/04/01 09:20:43;;;;;;;40.17;37.47;;;17.30;99.90;;;;;;5216571;28;20090;-66
2023/04/01 09:23:41;;;;;;;37.83;35.08;;;17.40;99.90;;;;;;5229942;28;20031;-65
2023/04/01 09:26:35;;;;;;;31.15;28.67;;;17.30;99.90;;;;;;5229833;28;20021;-65
2023/04/01 09:29:18;;;;;;;30.77;28.23;;;17.20;99.90;;;;;;5229937;28;20082;-69
2023/04/01 09:32:18;;;;;;;33.78;30.98;;;17.20;99.90;;;;;;5229859;28;20103;-66
2023/04/01 09:35:38;;;;;;;32.40;29.77;;;17.20;99.90;;;;;;5228821;28;20561;-68
2023/04/01 09:38:23;;;;;;;37.90;35.22;;;17.40;99.90;;;;;;5193427;28;20133;-69
2023/04/01 09:40:58;;;;;;;41.88;38.42;;;17.10;99.90;;;;;;5229535;28;20052;-73
2023/04/01 09:43:47;;;;;;;36.45;34.00;;;17.40;99.90;;;;;;5227622;28;20053;-67
2023/04/01 09:46:45;;;;;;;37.95;35.22;;;17.40;99.90;;;;;;5226194;28;20033;-74
2023/04/01 09:49:53;;;;;;;34.47;31.80;;;17.60;99.90;;;;;;5225870;28;20025;-66
2023/04/01 09:53:11;;;;;;;34.40;32.00;;;17.50;99.90;;;;;;5227790;28;20067;-74
2023/04/01 09:55:45;;;;;;;50.25;46.65;;;17.50;99.90;;;;;;5198385;28;20503;-68
2023/04/01 09:58:30;;;;;;;68.75;64.03;;;17.80;99.90;;;;;;5227218;28;20024;-66
2023/04/01 10:01:32;;;;;;;36.08;33.47;;;17.90;99.90;;;;;;5224850;28;20036;-77
2023/04/01 10:04:41;;;;;;;32.33;29.63;;;18.60;99.90;;;;;;5226728;28;20360;-74
2023/04/01 10:07:25;;;;;;;28.23;25.97;;;18.90;99.90;;;;;;5229434;28;20025;-65
2023/04/01 10:10:15;;;;;;;25.85;23.73;;;19.50;99.90;;;;;;5226452;28;20041;-75
2023/04/01 10:13:15;;;;;;;23.08;20.92;;;19.50;99.90;;;;;;5227598;28;20033;-66
2023/04/01 10:16:14;;;;;;;25.33;22.90;;;19.30;99.90;;;;;;5214795;28;20037;-75
2023/04/01 10:19:05;;;;;;;22.85;20.73;;;19.40;99.90;;;;;;5208199;28;20017;-72
2023/04/01 10:21:57;;;;;;;22.38;20.25;;;19.10;99.90;;;;;;5219134;28;20036;-67
2023/04/01 10:24:57;;;;;;;22.38;20.20;;;19.00;99.90;;;;;;5225366;28;20025;-65
2023/04/01 10:27:50;;;;;;;35.83;32.88;;;19.00;99.90;;;;;;5211560;28;20025;-68
2023/04/01 10:30:39;;;;;;;21.30;19.17;;;19.20;99.90;;;;;;5227860;28;20110;-68
2023/04/01 10:33:51;;;;;;;28.52;26.02;;;19.10;99.90;;;;;;5226624;28;20029;-67
2023/04/01 10:36:28;;;;;;;26.23;24.00;;;18.90;99.90;;;;;;5144753;28;20027;-73
2023/04/01 10:39:23;;;;;;;28.33;26.15;;;18.90;99.90;;;;;;5218042;28;20033;-64
2023/04/01 10:42:22;;;;;;;24.75;22.58;;;19.10;99.90;;;;;;5227967;28;20061;-65
2023/04/01 10:45:16;;;;;;;29.13;26.92;;;19.20;99.90;;;;;;5228409;28;20029;-73
2023/04/01 10:48:08;;;;;;;26.13;23.88;;;19.60;99.90;;;;;;5227722;28;20411;-71
2023/04/01 10:50:54;;;;;;;22.48;20.70;;;20.00;99.90;;;;;;5228371;28;20025;-66
2023/04/01 10:54:10;;;;;;;41.78;38.42;;;20.20;99.90;;;;;;5228291;28;20057;-67
2023/04/01 10:56:46;;;;;;;27.00;24.63;;;20.20;99.90;;;;;;5226321;28;20045;-63
2023/04/01 10:59:56;;;;;;;18.45;16.75;;;20.00;99.90;;;;;;5222513;28;20094;-67
2023/04/01 11:03:08;;;;;;;28.17;25.73;;;20.90;99.90;;;;;;5219473;28;20065;-64
2023/04/01 11:05:53;;;;;;;27.38;25.15;;;20.20;99.90;;;;;;5225150;28;20045;-76
2023/04/01 11:09:15;;;;;;;24.23;22.13;;;20.70;99.90;;;;;;5223004;28;20033;-70
2023/04/01 11:11:52;;;;;;;34.80;32.15;;;20.60;99.90;;;;;;5206985;28;20138;-74
2023/04/01 11:14:41;;;;;;;31.95;29.02;;;20.80;99.90;;;;;;5226568;28;20043;-67
2023/04/01 11:17:27;;;;;;;20.17;18.13;;;20.40;99.90;;;;;;5226931;28;20096;-68
2023/04/01 11:20:33;;;;;;;31.95;29.00;;;21.10;99.90;;;;;;5227372;28;20048;-69
2023/04/01 11:23:23;;;;;;;30.50;20.15;;;20.70;99.90;;;;;;5226718;28;20161;-68
2023/04/01 11:26:04;;;;;;;18.35;16.77;;;21.40;99.90;;;;;;5206287;28;20028;-70
2023/04/01 11:56:55;;;;;;;27.15;24.77;;;20.90;99.90;;;;;;5277652;27;21020;-65
2023/04/01 11:59:40;;;;;;;31.90;28.92;;;20.50;99.90;;;;;;5278376;28;20024;-71
2023/04/01 12:02:40;;;;;;;32.20;29.55;;;20.50;99.90;;;;;;5283249;28;20032;-70
2023/04/01 12:05:30;;;;;;;32.33;29.75;;;20.70;99.90;;;;;;5264885;28;20048;-65
2023/04/01 12:08:07;;;;;;;;;;;20.60;99.90;;;;;;5276864;28;20420;-66
2023/04/01 12:11:02;;;;;;;49.03;45.70;;;20.80;99.90;;;;;;5285746;28;19904;-67
2023/04/01 12:13:57;;;;;;;43.90;40.72;;;20.60;99.90;;;;;;5285635;28;20082;-66
2023/04/01 12:17:08;;;;;;;54.55;50.80;;;20.20;99.90;;;;;;5269643;28;20554;-67
2023/04/01 12:20:16;;;;;;;38.00;35.50;;;20.20;99.90;;;;;;5250450;28;20036;-71
2023/04/01 12:23:34;;;;;;;34.75;31.40;;;20.10;99.90;;;;;;5255862;28;20025;-72
2023/04/01 12:26:14;;;;;;;41.88;38.70;;;20.30;99.90;;;;;;5243706;28;20127;-66
2023/04/01 12:28:49;;;;;;;;;;;20.60;99.90;;;;;;5247318;28;20044;-67
2023/04/01 12:31:46;;;;;;;28.77;26.48;;;20.60;99.90;;;;;;5255587;28;19908;-73
2023/04/01 12:34:48;;;;;;;30.05;27.15;;;20.60;99.90;;;;;;5261550;28;20129;-65
2023/04/01 12:37:27;;;;;;;54.80;51.10;;;20.00;99.90;;;;;;5264177;28;20034;-72
2023/04/01 12:40:16;;;;;;;33.17;30.40;;;20.00;99.90;;;;;;5264181;28;20036;-72
2023/04/01 12:42:46;;;;;;;34.88;32.45;;;20.00;99.90;;;;;;5264517;28;20028;-73
2023/04/01 12:45:35;;;;;;;41.17;38.13;;;20.70;99.90;;;;;;5264060;28;20070;-70
2023/04/01 12:48:06;;;;;;;73.95;69.38;;;20.90;99.90;;;;;;5263954;28;20029;-72
2023/04/01 12:50:43;;;;;;;44.53;41.00;;;20.80;99.90;;;;;;5264392;28;20024;-73
2023/04/01 12:53:23;;;;;;;32.45;30.05;;;20.50;99.90;;;;;;5264180;28;20021;-71
2023/04/01 12:55:55;;;;;;;40.90;37.90;;;20.60;99.90;;;;;;5255552;28;20087;-72
2023/04/01 12:58:45;;;;;;;20.45;16.30;;;20.50;99.90;;;;;;5240553;28;20020;-73
2023/04/01 13:02:06;;;;;;;23.70;18.15;;;20.60;99.90;;;;;;5241906;28;20033;-72
2023/04/01 13:05:10;;;;;;;21.67;16.75;;;21.30;99.90;;;;;;5243535;28;20120;-72
2023/04/01 13:08:02;;;;;;;33.40;31.02;;;21.60;99.90;;;;;;5240797;28;20039;-66
2023/04/01 13:11:11;;;;;;;67.78;62.45;;;21.10;99.90;;;;;;5248174;28;20048;-68
2023/04/01 13:14:14;;;;;;;20.17;18.13;;;21.20;99.90;;;;;;5247837;28;20082;-73
2023/04/01 13:17:16;;;;;;;26.45;19.80;;;21.20;99.90;;;;;;5239318;28;20120;-74
2023/04/01 13:20:16;;;;;;;17.83;14.45;;;21.60;99.90;;;;;;5249674;28;20031;-66
2023/04/01 13:23:32;;;;;;;16.33;14.75;;;21.90;99.90;;;;;;5247001;28;20033;-74
2023/04/01 13:26:13;;;;;;;20.15;18.08;;;21.70;99.90;;;;;;5248994;28;20055;-67
2023/04/01 13:28:59;;;;;;;23.23;20.88;;;21.70;99.90;;;;;;5243193;28;20025;-68
2023/04/01 13:31:50;;;;;;;19.42;17.80;;;21.30;99.90;;;;;;5248420;28;20076;-67
2023/04/01 13:34:39;;;;;;;19.20;17.33;;;21.30;99.90;;;;;;5249435;28;20028;-67
2023/04/01 13:37:47;;;;;;;27.98;25.48;;;20.90;99.90;;;;;;5249528;28;20381;-70
2023/04/01 13:40:31;;;;;;;15.13;13.70;;;20.80;99.90;;;;;;5249249;28;20028;-74
2023/04/01 13:43:24;;;;;;;19.50;16.90;;;21.10;99.90;;;;;;5244830;28;20324;-74
2023/04/01 13:46:24;;;;;;;20.25;18.17;;;21.10;99.90;;;;;;5247360;28;20071;-66
2023/04/01 13:49:16;;;;;;;23.88;16.58;;;21.70;99.90;;;;;;5249258;28;20481;-75
2023/04/01 13:52:05;;;;;;;17.17;15.45;;;21.50;99.90;;;;;;5245416;28;20036;-70
2023/04/01 13:54:42;;;;;;;22.58;20.42;;;20.90;99.90;;;;;;5247169;28;20075;-72
2023/04/01 13:57:31;;;;;;;21.73;19.90;;;20.90;99.90;;;;;;5248171;28;20075;-66
2023/04/01 14:00:20;;;;;;;45.60;42.00;;;21.30;99.90;;;;;;5249033;28;20032;-72
2023/04/01 14:03:20;;;;;;;20.42;15.50;;;21.20;99.90;;;;;;5248209;28;20040;-69
2023/04/01 14:06:04;;;;;;;15.77;14.35;;;21.50;99.90;;;;;;5248667;28;20032;-66
2023/04/01 14:08:49;;;;;;;44.85;41.55;;;21.10;99.90;;;;;;5247517;28;20099;-67
2023/04/01 14:12:05;;;;;;;23.98;21.25;;;20.80;99.90;;;;;;5248150;28;20086;-72
2023/04/01 14:15:11;;;;;;;22.05;19.88;;;21.00;99.90;;;;;;5248537;28;20464;-71
2023/04/01 14:18:03;;;;;;;28.45;25.98;;;21.10;99.90;;;;;;5248404;28;20111;-66
2023/04/01 14:20:40;;;;;;;22.75;20.80;;;20.80;99.90;;;;;;5245605;28;20044;-72
2023/04/01 14:23:29;;;;;;;22.63;20.52;;;20.80;99.90;;;;;;5244905;28;20040;-67
2023/04/01 14:26:16;;;;;;;28.63;26.00;;;20.80;99.90;;;;;;5236600;28;20045;-72
2023/04/01 14:29:09;;;;;;;29.30;26.52;;;20.50;99.90;;;;;;5248211;28;20025;-68
2023/04/01 14:31:58;;;;;;;24.60;21.67;;;20.50;99.90;;;;;;5247750;28;20029;-71
2023/04/01 14:34:52;;;;;;;20.70;18.58;;;20.30;99.90;;;;;;5246807;28;20115;-71
2023/04/01 14:37:48;;;;;;;26.00;23.17;;;20.10;99.90;;;;;;5232643;28;20044;-70
2023/04/01 14:40:52;;;;;;;20.02;17.00;;;20.10;99.90;;;;;;5244179;28;20036;-71